Portada
METAR-TAF:

METAR-TAF

Aeropuertos :

Aeropuerto de Aarhus

Aarhus, Dinamarca

latitud: 56-18N, longitud: 010-37E, altitud: 23 m

Observación

El informe se hizo hace 24 minutos, a las 15:50 UTC
Viento 4 kt del sur, variando entre este-sureste y suroeste
Temperatura 26°C
Humedad 42%
Presión 1021 hPa
Visibilidad 10 km o más

METAR: EKAH 061550Z AUTO 17004KT 120V220 9999NDV SCT120/// BKN130/// 26/12 Q1021

Hora: 18:14 (16:14 UTC)

Pronóstico

El informe se hizo hace 5 horas y 9 minutos, a las 11:05 UTC
Pronóstico válido del 06 a las 12 UTC al 07 a las 12 UTC
Viento 8 kt del sur
Visibilidad 10 km o más
sin nubes por debajo de 1500 m y sin presencia de cumulonimbus.

TAF: EKAH 061105Z 0612/0712 18008KT CAVOK

Observaciones y pronósticos meteorológicos de más de 4000 aeropuertos (mensajes METAR y TAF).

Los puntos amarillos y rojos representan las estaciones disponibles.

Ponga el ratón en el punto deseado para ver el nombre de la estación.

Haga clic para ver las observaciones y los pronósticos meteorológicos.

Para cambiar el mapa : haga clic en los botones verdes con una cruz de color negro para hacer un zoom, en el botón verde con un guión para alejar o en las flechas verdes para mapas adyacentes.


METAR-TAF: